KDMN

Deming Municipal Airport

Deming, New Mexico, USA
METAR KDMN 212053Z AUTO 11011G16KT 10SM FEW035 FEW043 18/09 A3021 RMK AO2 SLP178 T01830089 58030 $
Observed Flight Rules
Oct-21 @ 20:53 UTC (51 minutes ago) Visual Flight Rules
Wind Visibility Clouds
110° at 11 knots
 Gusting to 16 knots
10 miles
  • Few at 3,500' AGL
  • Few at 4,300' AGL
Temperatures Readings
Current 18°C / 64°F
Dewpoint 9°C / 48°F
Humidity 56%
Altimeter 30.21" Hg
Pressure 1017.8 hPa
Elevation 1311
METAR KDMN 212053Z AUTO 11011G16KT 10SM FEW035 FEW043 18/09 A3021 RMK AO2 SLP178 T01830089 58030 $
Observed Flight Rules
Oct-21 @ 20:53 UTC
(51 minutes ago)
VFR
Wind Visibility
110° at 11 knots
 Gusting to 16 knots
10 miles
Clouds
  • Few at 3,500' AGL
  • Few at 4,300' AGL
Temperature Dewpoint
18°C / 64°F 9°C / 48°F
Humidity Altimeter Pressure
56% 30.21" Hg 1017.8 hPa